Time,TemperatureF,DewpointF,PressureIn,WindDirection,WindDirectionDegrees,WindSpeedMPH,WindSpeedGustMPH,Humidity,HourlyPrecipIn,Conditions,Clouds,dailyrainin,SolarRadiationWatts/m^2,SoftwareType,DateUTC
2013-10-14 00:02:00,49.0,38.0,-100.00,NNE,18,2.0,7.0,66,0.00,,,0.00,0.000000,,2013-10-14 06:02:00,
2013-10-14 00:12:00,49.0,38.0,-100.00,NNE,18,2.0,7.0,66,0.00,,,0.00,0.000000,,2013-10-14 06:12:00,
2013-10-14 00:42:00,47.0,41.0,-100.00,NNW,340,3.0,6.0,80,0.01,,,0.01,0.000000,,2013-10-14 06:42:00,
2013-10-14 00:52:00,47.0,41.0,-100.00,NNW,340,3.0,6.0,80,0.01,,,0.01,0.000000,,2013-10-14 06:52:00,
2013-10-14 01:02:00,47.0,41.0,-100.00,NNW,340,3.0,6.0,80,0.01,,,0.01,0.000000,,2013-10-14 07:02:00,
2013-10-14 01:11:00,47.0,41.0,-100.00,NNW,340,3.0,6.0,80,0.01,,,0.01,0.000000,,2013-10-14 07:11:00,
2013-10-14 01:42:00,46.0,40.0,-100.00,North,360,4.0,8.0,79,0.00,,,0.01,0.000000,,2013-10-14 07:42:00,
2013-10-14 01:52:00,46.0,40.0,-100.00,North,360,4.0,8.0,79,0.00,,,0.01,0.000000,,2013-10-14 07:52:00,
2013-10-14 02:02:00,46.0,40.0,-100.00,North,360,4.0,8.0,79,0.00,,,0.01,0.000000,,2013-10-14 08:02:00,
2013-10-14 02:12:00,46.0,40.0,-100.00,North,360,4.0,8.0,79,0.00,,,0.01,0.000000,,2013-10-14 08:12:00,
2013-10-14 02:42:00,47.0,42.0,-100.00,WSW,242,1.0,7.0,83,0.00,,,0.01,0.000000,,2013-10-14 08:42:00,
2013-10-14 02:52:00,47.0,42.0,-100.00,WSW,242,1.0,7.0,83,0.00,,,0.01,0.000000,,2013-10-14 08:52:00,
2013-10-14 03:01:00,47.0,42.0,-100.00,WSW,242,1.0,7.0,83,0.00,,,0.01,0.000000,,2013-10-14 09:01:00,
2013-10-14 03:11:00,47.0,42.0,-100.00,WSW,242,1.0,7.0,83,0.00,,,0.01,0.000000,,2013-10-14 09:11:00,
2013-10-14 03:43:00,47.0,43.0,-100.00,NNW,330,2.0,5.0,86,0.00,,,0.01,0.000000,,2013-10-14 09:43:00,
2013-10-14 03:53:00,47.0,43.0,-100.00,NNW,330,2.0,5.0,86,0.00,,,0.01,0.000000,,2013-10-14 09:53:00,
2013-10-14 04:03:00,47.0,43.0,-100.00,NNW,330,2.0,5.0,86,0.00,,,0.01,0.000000,,2013-10-14 10:03:00,
2013-10-14 04:12:00,47.0,43.0,-100.00,NNW,330,2.0,5.0,86,0.00,,,0.01,0.000000,,2013-10-14 10:12:00,
2013-10-14 04:42:00,45.0,43.0,-100.00,NNE,14,7.0,10.0,92,0.11,,,0.12,0.000000,,2013-10-14 10:42:00,
2013-10-14 04:53:00,45.0,43.0,-100.00,NNE,14,7.0,10.0,92,0.11,,,0.12,0.000000,,2013-10-14 10:53:00,
2013-10-14 05:02:00,45.0,43.0,-100.00,NNE,14,7.0,10.0,92,0.11,,,0.12,0.000000,,2013-10-14 11:02:00,
2013-10-14 05:11:00,45.0,43.0,-100.00,NNE,14,7.0,10.0,92,0.11,,,0.12,0.000000,,2013-10-14 11:11:00,
2013-10-14 05:42:00,43.0,42.0,-100.00,North,9,9.0,13.0,96,0.10,,,0.22,0.000000,,2013-10-14 11:42:00,
2013-10-14 05:52:00,43.0,42.0,-100.00,North,9,9.0,13.0,96,0.10,,,0.22,0.000000,,2013-10-14 11:52:00,
2013-10-14 06:02:00,43.0,42.0,-100.00,North,9,9.0,13.0,96,0.10,,,0.22,0.000000,,2013-10-14 12:02:00,
2013-10-14 06:12:00,43.0,42.0,-100.00,North,9,9.0,13.0,96,0.10,,,0.22,0.000000,,2013-10-14 12:12:00,
2013-10-14 06:42:00,43.0,42.0,-100.00,NNE,21,6.0,12.0,97,0.06,,,0.28,0.000000,,2013-10-14 12:42:00,
2013-10-14 06:52:00,43.0,42.0,-100.00,NNE,21,6.0,12.0,97,0.06,,,0.28,0.000000,,2013-10-14 12:52:00,
2013-10-14 07:02:00,43.0,42.0,-100.00,NNE,21,6.0,12.0,97,0.06,,,0.28,0.000000,,2013-10-14 13:02:00,
2013-10-14 07:11:00,43.0,42.0,-100.00,NNE,21,6.0,12.0,97,0.06,,,0.28,0.000000,,2013-10-14 13:11:00,
2013-10-14 07:42:00,43.0,42.0,-100.00,NE,53,3.0,9.0,97,0.01,,,0.29,0.000000,,2013-10-14 13:42:00,
2013-10-14 07:52:00,43.0,42.0,-100.00,NE,53,3.0,9.0,97,0.01,,,0.29,0.000000,,2013-10-14 13:52:00,
2013-10-14 08:02:00,43.0,42.0,-100.00,NE,53,3.0,9.0,97,0.01,,,0.29,0.000000,,2013-10-14 14:02:00,
2013-10-14 08:11:00,43.0,42.0,-100.00,NE,53,3.0,9.0,97,0.01,,,0.29,0.000000,,2013-10-14 14:11:00,
2013-10-14 08:42:00,44.0,43.0,-100.00,NNW,328,4.0,7.0,98,0.15,,,0.44,2.000000,,2013-10-14 14:42:00,
2013-10-14 08:52:00,44.0,43.0,-100.00,NNW,328,4.0,7.0,98,0.15,,,0.44,2.000000,,2013-10-14 14:52:00,
2013-10-14 09:01:00,44.0,43.0,-100.00,NNW,328,4.0,7.0,98,0.15,,,0.44,2.000000,,2013-10-14 15:01:00,
2013-10-14 09:11:00,44.0,43.0,-100.00,NNW,328,4.0,7.0,98,0.15,,,0.44,2.000000,,2013-10-14 15:11:00,
2013-10-14 09:13:00,45.0,43.0,-100.00,NW,322,4.0,10.0,93,0.11,,,0.55,17.000000,,2013-10-14 15:13:00,
2013-10-14 09:44:00,45.0,43.0,-100.00,NW,322,4.0,10.0,93,0.11,,,0.55,17.000000,,2013-10-14 15:44:00,
2013-10-14 09:54:00,45.0,43.0,-100.00,NW,322,4.0,10.0,93,0.11,,,0.55,17.000000,,2013-10-14 15:54:00,
2013-10-14 10:03:00,45.0,43.0,-100.00,NW,322,4.0,10.0,93,0.11,,,0.55,17.000000,,2013-10-14 16:03:00,
2013-10-14 10:43:00,45.0,43.0,-100.00,WNW,295,2.0,9.0,94,0.06,,,0.61,49.000000,,2013-10-14 16:43:00,
2013-10-14 10:53:00,45.0,43.0,-100.00,WNW,295,2.0,9.0,94,0.06,,,0.61,49.000000,,2013-10-14 16:53:00,
2013-10-14 11:02:00,45.0,43.0,-100.00,WNW,295,2.0,9.0,94,0.06,,,0.61,49.000000,,2013-10-14 17:02:00,
2013-10-14 11:11:00,45.0,43.0,-100.00,WNW,295,2.0,9.0,94,0.06,,,0.61,49.000000,,2013-10-14 17:11:00,
2013-10-14 11:42:00,45.0,41.0,-100.00,NW,305,5.0,11.0,87,0.04,,,0.65,101.000000,,2013-10-14 17:42:00,
2013-10-14 11:52:00,45.0,41.0,-100.00,NW,305,5.0,11.0,87,0.04,,,0.65,101.000000,,2013-10-14 17:52:00,
2013-10-14 12:01:00,45.0,41.0,-100.00,NW,305,5.0,11.0,87,0.04,,,0.65,101.000000,,2013-10-14 18:01:00,
2013-10-14 12:12:00,45.0,41.0,-100.00,NW,305,5.0,11.0,87,0.04,,,0.65,101.000000,,2013-10-14 18:12:00,
2013-10-14 12:43:00,44.0,41.0,-100.00,NW,324,6.0,12.0,88,0.06,,,0.71,53.000000,,2013-10-14 18:43:00,
2013-10-14 12:52:00,44.0,41.0,-100.00,NW,324,6.0,12.0,88,0.06,,,0.71,53.000000,,2013-10-14 18:52:00,
2013-10-14 13:02:00,44.0,41.0,-100.00,NW,324,6.0,12.0,88,0.06,,,0.71,53.000000,,2013-10-14 19:02:00,
2013-10-14 13:11:00,44.0,41.0,-100.00,NW,324,6.0,12.0,88,0.06,,,0.71,53.000000,,2013-10-14 19:11:00,
2013-10-14 13:42:00,43.0,39.0,-100.00,NNW,338,8.0,12.0,87,0.03,,,0.74,55.000000,,2013-10-14 19:42:00,
2013-10-14 13:52:00,43.0,39.0,-100.00,NNW,338,8.0,12.0,87,0.03,,,0.74,55.000000,,2013-10-14 19:52:00,
2013-10-14 14:02:00,43.0,39.0,-100.00,NNW,338,8.0,12.0,87,0.03,,,0.74,55.000000,,2013-10-14 20:02:00,
2013-10-14 14:11:00,43.0,39.0,-100.00,NNW,338,8.0,12.0,87,0.03,,,0.74,55.000000,,2013-10-14 20:11:00,
2013-10-14 14:43:00,39.0,35.0,-100.00,NW,310,11.0,20.0,86,0.17,,,0.91,53.000000,,2013-10-14 20:43:00,
2013-10-14 14:52:00,39.0,35.0,-100.00,NW,310,11.0,20.0,86,0.17,,,0.91,53.000000,,2013-10-14 20:52:00,
2013-10-14 15:02:00,39.0,35.0,-100.00,NW,310,11.0,20.0,86,0.17,,,0.91,53.000000,,2013-10-14 21:02:00,
2013-10-14 15:12:00,39.0,35.0,-100.00,NW,310,11.0,20.0,86,0.17,,,0.91,53.000000,,2013-10-14 21:12:00,
2013-10-14 15:13:00,39.0,34.0,-100.00,NW,304,11.0,20.0,82,0.03,,,0.94,51.000000,,2013-10-14 21:13:00,
2013-10-14 15:44:00,39.0,34.0,-100.00,NW,304,11.0,20.0,82,0.03,,,0.94,51.000000,,2013-10-14 21:44:00,
2013-10-14 15:55:00,39.0,34.0,-100.00,NW,304,11.0,20.0,82,0.03,,,0.94,51.000000,,2013-10-14 21:55:00,
2013-10-14 16:04:00,39.0,34.0,-100.00,NW,304,11.0,20.0,82,0.03,,,0.94,51.000000,,2013-10-14 22:04:00,
2013-10-14 16:44:00,40.0,32.0,-100.00,NW,313,8.0,22.0,74,0.01,,,0.95,39.000000,,2013-10-14 22:44:00,
2013-10-14 16:54:00,40.0,32.0,-100.00,NW,313,8.0,22.0,74,0.01,,,0.95,39.000000,,2013-10-14 22:54:00,
2013-10-14 17:03:00,40.0,32.0,-100.00,NW,313,8.0,22.0,74,0.01,,,0.95,39.000000,,2013-10-14 23:03:00,
2013-10-14 17:12:00,40.0,32.0,-100.00,NW,313,8.0,22.0,74,0.01,,,0.95,39.000000,,2013-10-14 23:12:00,
2013-10-14 17:42:00,39.0,29.0,-100.00,NW,309,10.0,22.0,68,0.00,,,0.95,29.000000,,2013-10-14 23:42:00,
2013-10-14 17:53:00,39.0,29.0,-100.00,NW,309,10.0,22.0,68,0.00,,,0.95,29.000000,,2013-10-14 23:53:00,
2013-10-14 18:02:00,39.0,29.0,-100.00,NW,309,10.0,22.0,68,0.00,,,0.95,29.000000,,2013-10-15 00:02:00,
2013-10-14 18:12:00,39.0,29.0,-100.00,NW,309,10.0,22.0,68,0.00,,,0.95,29.000000,,2013-10-15 00:12:00,
2013-10-14 18:43:00,39.0,29.0,-100.00,NW,304,11.0,22.0,67,0.00,,,0.95,11.000000,,2013-10-15 00:43:00,
2013-10-14 18:52:00,39.0,29.0,-100.00,NW,304,11.0,22.0,67,0.00,,,0.95,11.000000,,2013-10-15 00:52:00,
2013-10-14 19:02:00,39.0,29.0,-100.00,NW,304,11.0,22.0,67,0.00,,,0.95,11.000000,,2013-10-15 01:02:00,
2013-10-14 19:12:00,39.0,29.0,-100.00,NW,304,11.0,22.0,67,0.00,,,0.95,11.000000,,2013-10-15 01:12:00,
2013-10-14 19:42:00,39.0,26.0,-100.00,NW,314,11.0,22.0,60,0.00,,,0.95,0.000000,,2013-10-15 01:42:00,
2013-10-14 19:52:00,39.0,26.0,-100.00,NW,314,11.0,22.0,60,0.00,,,0.95,0.000000,,2013-10-15 01:52:00,
2013-10-14 20:03:00,39.0,26.0,-100.00,NW,314,11.0,22.0,60,0.00,,,0.95,0.000000,,2013-10-15 02:03:00,
2013-10-14 20:12:00,39.0,26.0,-100.00,NW,314,11.0,22.0,60,0.00,,,0.95,0.000000,,2013-10-15 02:12:00,
2013-10-14 20:42:00,38.0,25.0,-100.00,NW,310,12.0,22.0,58,0.00,,,0.95,0.000000,,2013-10-15 02:42:00,
2013-10-14 20:52:00,38.0,25.0,-100.00,NW,310,12.0,22.0,58,0.00,,,0.95,0.000000,,2013-10-15 02:52:00,
2013-10-14 21:02:00,38.0,25.0,-100.00,NW,310,12.0,22.0,58,0.00,,,0.95,0.000000,,2013-10-15 03:02:00,
2013-10-14 21:12:00,38.0,25.0,-100.00,NW,310,12.0,22.0,58,0.00,,,0.95,0.000000,,2013-10-15 03:12:00,
2013-10-14 21:13:00,38.0,24.0,-100.00,WNW,299,8.0,21.0,57,0.00,,,0.95,0.000000,,2013-10-15 03:13:00,
2013-10-14 21:44:00,38.0,24.0,-100.00,WNW,299,8.0,21.0,57,0.00,,,0.95,0.000000,,2013-10-15 03:44:00,
2013-10-14 21:55:00,38.0,24.0,-100.00,WNW,299,8.0,21.0,57,0.00,,,0.95,0.000000,,2013-10-15 03:55:00,
2013-10-14 22:04:00,38.0,24.0,-100.00,WNW,299,8.0,21.0,57,0.00,,,0.95,0.000000,,2013-10-15 04:04:00,
2013-10-14 22:13:00,37.0,23.0,-100.00,WNW,300,10.0,17.0,57,0.00,,,-99.99,0.000000,,2013-10-15 04:13:00,
2013-10-14 22:44:00,37.0,23.0,-100.00,WNW,300,10.0,17.0,57,0.00,,,-99.99,0.000000,,2013-10-15 04:44:00,
2013-10-14 22:54:00,37.0,23.0,-100.00,WNW,300,10.0,17.0,57,0.00,,,-99.99,0.000000,,2013-10-15 04:54:00,
2013-10-14 23:03:00,37.0,23.0,-100.00,WNW,300,10.0,17.0,57,0.00,,,-99.99,0.000000,,2013-10-15 05:03:00,
2013-10-14 23:42:00,36.0,23.0,-100.00,WNW,302,7.0,18.0,59,0.00,,,0.95,0.000000,,2013-10-15 05:42:00,
2013-10-14 23:53:00,36.0,23.0,-100.00,WNW,302,7.0,18.0,59,0.00,,,0.95,0.000000,,2013-10-15 05:53:00,